sensor_id;sensor_type;location;lat;lon;timestamp;P1;durP1;ratioP1;P2;durP2;ratioP2
13999;SDS011;7075;53.574;10.054;2023-01-20T00:02:12;221.75;;;210.60;;
13999;SDS011;7075;53.574;10.054;2023-01-20T00:04:40;222.35;;;211.20;;
13999;SDS011;7075;53.574;10.054;2023-01-20T00:07:06;237.97;;;226.10;;
13999;SDS011;7075;53.574;10.054;2023-01-20T00:09:31;231.20;;;219.10;;
13999;SDS011;7075;53.574;10.054;2023-01-20T00:11:57;237.35;;;225.25;;
13999;SDS011;7075;53.574;10.054;2023-01-20T00:14:24;225.07;;;213.73;;
13999;SDS011;7075;53.574;10.054;2023-01-20T00:16:49;238.97;;;226.87;;
13999;SDS011;7075;53.574;10.054;2023-01-20T00:19:15;239.90;;;227.70;;
13999;SDS011;7075;53.574;10.054;2023-01-20T00:21:41;235.03;;;223.03;;
13999;SDS011;7075;53.574;10.054;2023-01-20T00:24:07;216.73;;;205.82;;
13999;SDS011;7075;53.574;10.054;2023-01-20T00:26:33;225.52;;;214.30;;
13999;SDS011;7075;53.574;10.054;2023-01-20T00:28:58;227.03;;;215.40;;
13999;SDS011;7075;53.574;10.054;2023-01-20T00:31:28;236.27;;;224.17;;
13999;SDS011;7075;53.574;10.054;2023-01-20T00:33:55;231.10;;;219.30;;
13999;SDS011;7075;53.574;10.054;2023-01-20T00:36:22;262.77;;;249.75;;
13999;SDS011;7075;53.574;10.054;2023-01-20T00:38:49;235.13;;;223.18;;
13999;SDS011;7075;53.574;10.054;2023-01-20T00:41:16;272.13;;;258.67;;
13999;SDS011;7075;53.574;10.054;2023-01-20T00:43:43;259.75;;;246.73;;
13999;SDS011;7075;53.574;10.054;2023-01-20T00:46:09;270.35;;;256.95;;
13999;SDS011;7075;53.574;10.054;2023-01-20T00:48:35;255.32;;;242.40;;
13999;SDS011;7075;53.574;10.054;2023-01-20T00:51:02;252.20;;;239.47;;
13999;SDS011;7075;53.574;10.054;2023-01-20T00:53:28;300.40;;;285.33;;
13999;SDS011;7075;53.574;10.054;2023-01-20T00:55:54;276.80;;;262.98;;
13999;SDS011;7075;53.574;10.054;2023-01-20T00:58:20;254.90;;;242.33;;
13999;SDS011;7075;53.574;10.054;2023-01-20T01:00:46;277.88;;;264.38;;
13999;SDS011;7075;53.574;10.054;2023-01-20T01:03:12;254.48;;;241.70;;
13999;SDS011;7075;53.574;10.054;2023-01-20T01:05:39;265.50;;;251.98;;
13999;SDS011;7075;53.574;10.054;2023-01-20T01:08:05;265.70;;;252.07;;
13999;SDS011;7075;53.574;10.054;2023-01-20T01:10:31;249.80;;;237.15;;
13999;SDS011;7075;53.574;10.054;2023-01-20T01:13:01;251.23;;;238.50;;
13999;SDS011;7075;53.574;10.054;2023-01-20T01:15:27;248.98;;;236.38;;
13999;SDS011;7075;53.574;10.054;2023-01-20T01:17:53;292.02;;;277.20;;
13999;SDS011;7075;53.574;10.054;2023-01-20T01:20:20;321.92;;;305.48;;
13999;SDS011;7075;53.574;10.054;2023-01-20T01:22:45;308.85;;;292.58;;
13999;SDS011;7075;53.574;10.054;2023-01-20T01:25:11;309.75;;;293.85;;
13999;SDS011;7075;53.574;10.054;2023-01-20T01:27:37;295.20;;;279.85;;
13999;SDS011;7075;53.574;10.054;2023-01-20T01:30:03;342.60;;;324.70;;
13999;SDS011;7075;53.574;10.054;2023-01-20T01:32:29;313.25;;;297.33;;
13999;SDS011;7075;53.574;10.054;2023-01-20T01:34:55;296.63;;;281.20;;
13999;SDS011;7075;53.574;10.054;2023-01-20T01:37:21;363.42;;;344.63;;
13999;SDS011;7075;53.574;10.054;2023-01-20T01:39:46;347.67;;;329.50;;
13999;SDS011;7075;53.574;10.054;2023-01-20T01:42:13;340.63;;;322.83;;
13999;SDS011;7075;53.574;10.054;2023-01-20T01:47:35;327.42;;;310.02;;
13999;SDS011;7075;53.574;10.054;2023-01-20T01:50:02;341.60;;;322.75;;
13999;SDS011;7075;53.574;10.054;2023-01-20T01:52:29;354.23;;;335.20;;
13999;SDS011;7075;53.574;10.054;2023-01-20T01:54:55;383.15;;;362.30;;
13999;SDS011;7075;53.574;10.054;2023-01-20T01:57:22;384.55;;;363.27;;
13999;SDS011;7075;53.574;10.054;2023-01-20T01:59:48;375.23;;;354.48;;
13999;SDS011;7075;53.574;10.054;2023-01-20T02:02:15;366.08;;;345.52;;
13999;SDS011;7075;53.574;10.054;2023-01-20T02:04:40;402.50;;;379.97;;
13999;SDS011;7075;53.574;10.054;2023-01-20T02:07:13;412.67;;;390.00;;
13999;SDS011;7075;53.574;10.054;2023-01-20T02:09:42;421.42;;;397.88;;
13999;SDS011;7075;53.574;10.054;2023-01-20T02:12:09;423.95;;;400.70;;
13999;SDS011;7075;53.574;10.054;2023-01-20T02:14:56;395.35;;;373.33;;
13999;SDS011;7075;53.574;10.054;2023-01-20T02:18:28;405.10;;;382.27;;
13999;SDS011;7075;53.574;10.054;2023-01-20T02:21:04;395.07;;;372.87;;
13999;SDS011;7075;53.574;10.054;2023-01-20T02:23:52;437.25;;;412.50;;
13999;SDS011;7075;53.574;10.054;2023-01-20T02:29:18;417.95;;;394.75;;
13999;SDS011;7075;53.574;10.054;2023-01-20T02:37:39;383.55;;;362.73;;
13999;SDS011;7075;53.574;10.054;2023-01-20T02:42:48;376.40;;;355.90;;
13999;SDS011;7075;53.574;10.054;2023-01-20T02:45:24;383.15;;;362.48;;
13999;SDS011;7075;53.574;10.054;2023-01-20T02:48:11;382.20;;;361.70;;
13999;SDS011;7075;53.574;10.054;2023-01-20T02:53:38;378.40;;;357.73;;
13999;SDS011;7075;53.574;10.054;2023-01-20T02:56:09;382.27;;;361.40;;
13999;SDS011;7075;53.574;10.054;2023-01-20T03:01:39;451.27;;;424.77;;
13999;SDS011;7075;53.574;10.054;2023-01-20T03:04:12;413.73;;;389.95;;
13999;SDS011;7075;53.574;10.054;2023-01-20T03:06:43;436.02;;;410.00;;
13999;SDS011;7075;53.574;10.054;2023-01-20T03:09:14;447.17;;;421.27;;
13999;SDS011;7075;53.574;10.054;2023-01-20T03:11:44;445.57;;;419.17;;
13999;SDS011;7075;53.574;10.054;2023-01-20T03:14:15;468.17;;;440.95;;
13999;SDS011;7075;53.574;10.054;2023-01-20T03:16:41;429.38;;;404.58;;
13999;SDS011;7075;53.574;10.054;2023-01-20T03:19:08;437.85;;;412.60;;
13999;SDS011;7075;53.574;10.054;2023-01-20T03:21:34;437.52;;;412.40;;
13999;SDS011;7075;53.574;10.054;2023-01-20T03:24:01;420.90;;;396.83;;
13999;SDS011;7075;53.574;10.054;2023-01-20T03:26:28;444.77;;;418.83;;
13999;SDS011;7075;53.574;10.054;2023-01-20T03:28:54;422.08;;;397.83;;
13999;SDS011;7075;53.574;10.054;2023-01-20T03:31:35;432.75;;;407.15;;
13999;SDS011;7075;53.574;10.054;2023-01-20T03:34:16;430.77;;;406.27;;
13999;SDS011;7075;53.574;10.054;2023-01-20T03:36:44;407.98;;;384.83;;
13999;SDS011;7075;53.574;10.054;2023-01-20T03:39:10;394.30;;;372.05;;
13999;SDS011;7075;53.574;10.054;2023-01-20T03:41:55;435.65;;;410.48;;
13999;SDS011;7075;53.574;10.054;2023-01-20T03:44:32;428.80;;;403.80;;
13999;SDS011;7075;53.574;10.054;2023-01-20T03:50:30;432.27;;;407.02;;
13999;SDS011;7075;53.574;10.054;2023-01-20T03:56:34;452.77;;;426.17;;
13999;SDS011;7075;53.574;10.054;2023-01-20T03:59:05;497.08;;;467.08;;
13999;SDS011;7075;53.574;10.054;2023-01-20T04:01:35;497.23;;;467.35;;
13999;SDS011;7075;53.574;10.054;2023-01-20T04:04:03;457.67;;;430.42;;
13999;SDS011;7075;53.574;10.054;2023-01-20T04:06:32;491.70;;;462.08;;
13999;SDS011;7075;53.574;10.054;2023-01-20T04:09:04;490.13;;;460.77;;
13999;SDS011;7075;53.574;10.054;2023-01-20T04:11:33;479.52;;;451.17;;
13999;SDS011;7075;53.574;10.054;2023-01-20T04:13:59;507.27;;;475.88;;
13999;SDS011;7075;53.574;10.054;2023-01-20T04:16:24;562.43;;;526.60;;
13999;SDS011;7075;53.574;10.054;2023-01-20T04:18:51;550.92;;;516.72;;
13999;SDS011;7075;53.574;10.054;2023-01-20T04:21:22;499.55;;;469.10;;
13999;SDS011;7075;53.574;10.054;2023-01-20T04:24:02;492.58;;;463.02;;
13999;SDS011;7075;53.574;10.054;2023-01-20T04:26:37;499.42;;;468.75;;
13999;SDS011;7075;53.574;10.054;2023-01-20T04:29:03;479.90;;;450.47;;
13999;SDS011;7075;53.574;10.054;2023-01-20T04:31:33;479.02;;;450.02;;
13999;SDS011;7075;53.574;10.054;2023-01-20T04:33:59;483.90;;;454.52;;
13999;SDS011;7075;53.574;10.054;2023-01-20T04:36:25;431.80;;;405.52;;
13999;SDS011;7075;53.574;10.054;2023-01-20T04:38:51;476.17;;;448.17;;
13999;SDS011;7075;53.574;10.054;2023-01-20T04:41:18;476.75;;;448.13;;
13999;SDS011;7075;53.574;10.054;2023-01-20T04:43:44;497.03;;;466.77;;
13999;SDS011;7075;53.574;10.054;2023-01-20T04:46:10;473.02;;;444.55;;
13999;SDS011;7075;53.574;10.054;2023-01-20T04:48:37;480.07;;;450.90;;
13999;SDS011;7075;53.574;10.054;2023-01-20T04:51:03;522.03;;;489.30;;
13999;SDS011;7075;53.574;10.054;2023-01-20T04:53:29;480.10;;;451.03;;
13999;SDS011;7075;53.574;10.054;2023-01-20T04:55:55;477.07;;;448.53;;
13999;SDS011;7075;53.574;10.054;2023-01-20T04:58:20;503.73;;;472.93;;
13999;SDS011;7075;53.574;10.054;2023-01-20T05:00:46;527.33;;;494.23;;
13999;SDS011;7075;53.574;10.054;2023-01-20T05:03:11;552.60;;;518.10;;
13999;SDS011;7075;53.574;10.054;2023-01-20T05:05:37;615.00;;;574.43;;
13999;SDS011;7075;53.574;10.054;2023-01-20T05:08:02;632.40;;;590.57;;
13999;SDS011;7075;53.574;10.054;2023-01-20T05:10:29;576.63;;;539.40;;
13999;SDS011;7075;53.574;10.054;2023-01-20T05:12:56;547.35;;;512.53;;
13999;SDS011;7075;53.574;10.054;2023-01-20T05:15:22;569.03;;;532.20;;
13999;SDS011;7075;53.574;10.054;2023-01-20T05:17:47;587.42;;;549.60;;
13999;SDS011;7075;53.574;10.054;2023-01-20T05:20:13;655.17;;;610.97;;
13999;SDS011;7075;53.574;10.054;2023-01-20T05:22:39;642.40;;;599.88;;
13999;SDS011;7075;53.574;10.054;2023-01-20T05:25:04;663.83;;;619.67;;
13999;SDS011;7075;53.574;10.054;2023-01-20T05:27:33;661.00;;;616.20;;
13999;SDS011;7075;53.574;10.054;2023-01-20T05:29:59;647.88;;;605.42;;
13999;SDS011;7075;53.574;10.054;2023-01-20T05:32:25;593.53;;;554.15;;
13999;SDS011;7075;53.574;10.054;2023-01-20T05:34:51;550.70;;;515.13;;
13999;SDS011;7075;53.574;10.054;2023-01-20T05:37:16;589.60;;;551.00;;
13999;SDS011;7075;53.574;10.054;2023-01-20T05:39:42;600.63;;;561.50;;
13999;SDS011;7075;53.574;10.054;2023-01-20T05:42:08;624.78;;;582.47;;
13999;SDS011;7075;53.574;10.054;2023-01-20T05:44:33;576.77;;;538.60;;
13999;SDS011;7075;53.574;10.054;2023-01-20T05:47:00;601.60;;;561.80;;
13999;SDS011;7075;53.574;10.054;2023-01-20T05:49:26;630.55;;;588.22;;
13999;SDS011;7075;53.574;10.054;2023-01-20T05:51:51;633.35;;;591.00;;
13999;SDS011;7075;53.574;10.054;2023-01-20T05:54:17;637.72;;;594.30;;
13999;SDS011;7075;53.574;10.054;2023-01-20T05:56:43;645.35;;;601.47;;
13999;SDS011;7075;53.574;10.054;2023-01-20T05:59:08;628.28;;;586.58;;
13999;SDS011;7075;53.574;10.054;2023-01-20T06:01:34;616.38;;;575.47;;
13999;SDS011;7075;53.574;10.054;2023-01-20T06:04:00;535.57;;;501.67;;
13999;SDS011;7075;53.574;10.054;2023-01-20T06:06:25;550.10;;;515.17;;
13999;SDS011;7075;53.574;10.054;2023-01-20T06:08:51;558.17;;;521.93;;
13999;SDS011;7075;53.574;10.054;2023-01-20T06:11:17;554.73;;;519.17;;
13999;SDS011;7075;53.574;10.054;2023-01-20T06:13:44;562.17;;;526.57;;
13999;SDS011;7075;53.574;10.054;2023-01-20T06:16:11;520.63;;;488.13;;
13999;SDS011;7075;53.574;10.054;2023-01-20T06:18:37;483.45;;;452.98;;
13999;SDS011;7075;53.574;10.054;2023-01-20T06:21:02;517.17;;;484.77;;
13999;SDS011;7075;53.574;10.054;2023-01-20T06:23:28;541.10;;;506.83;;
13999;SDS011;7075;53.574;10.054;2023-01-20T06:26:01;522.37;;;489.77;;
13999;SDS011;7075;53.574;10.054;2023-01-20T06:28:31;489.83;;;459.02;;
13999;SDS011;7075;53.574;10.054;2023-01-20T06:31:00;511.55;;;480.38;;
13999;SDS011;7075;53.574;10.054;2023-01-20T06:33:27;517.42;;;485.67;;
13999;SDS011;7075;53.574;10.054;2023-01-20T06:35:54;500.88;;;470.10;;
13999;SDS011;7075;53.574;10.054;2023-01-20T06:38:21;495.37;;;465.47;;
13999;SDS011;7075;53.574;10.054;2023-01-20T06:40:47;451.13;;;424.30;;
13999;SDS011;7075;53.574;10.054;2023-01-20T06:43:13;462.33;;;434.47;;
13999;SDS011;7075;53.574;10.054;2023-01-20T06:45:39;420.03;;;396.00;;
13999;SDS011;7075;53.574;10.054;2023-01-20T06:48:04;427.80;;;402.93;;
13999;SDS011;7075;53.574;10.054;2023-01-20T06:50:30;434.98;;;409.77;;
13999;SDS011;7075;53.574;10.054;2023-01-20T06:52:56;420.75;;;396.15;;
13999;SDS011;7075;53.574;10.054;2023-01-20T06:55:23;465.80;;;437.77;;
13999;SDS011;7075;53.574;10.054;2023-01-20T06:57:48;475.15;;;446.38;;
13999;SDS011;7075;53.574;10.054;2023-01-20T07:00:14;488.37;;;457.57;;
13999;SDS011;7075;53.574;10.054;2023-01-20T07:02:40;488.37;;;458.63;;
13999;SDS011;7075;53.574;10.054;2023-01-20T07:05:07;481.40;;;451.03;;
13999;SDS011;7075;53.574;10.054;2023-01-20T07:07:33;471.02;;;441.88;;
13999;SDS011;7075;53.574;10.054;2023-01-20T07:09:59;489.47;;;458.27;;
13999;SDS011;7075;53.574;10.054;2023-01-20T07:12:26;469.75;;;440.00;;
13999;SDS011;7075;53.574;10.054;2023-01-20T07:14:52;452.45;;;424.20;;
13999;SDS011;7075;53.574;10.054;2023-01-20T07:17:18;454.10;;;425.23;;
13999;SDS011;7075;53.574;10.054;2023-01-20T07:19:43;480.30;;;450.17;;
13999;SDS011;7075;53.574;10.054;2023-01-20T07:22:09;446.23;;;418.63;;
13999;SDS011;7075;53.574;10.054;2023-01-20T07:24:35;440.30;;;413.47;;
13999;SDS011;7075;53.574;10.054;2023-01-20T07:27:00;489.13;;;458.73;;
13999;SDS011;7075;53.574;10.054;2023-01-20T07:29:26;469.48;;;439.85;;
13999;SDS011;7075;53.574;10.054;2023-01-20T07:31:51;448.48;;;420.30;;
13999;SDS011;7075;53.574;10.054;2023-01-20T07:34:17;470.60;;;440.87;;
13999;SDS011;7075;53.574;10.054;2023-01-20T07:36:43;475.93;;;445.03;;
13999;SDS011;7075;53.574;10.054;2023-01-20T07:39:09;463.87;;;434.83;;
13999;SDS011;7075;53.574;10.054;2023-01-20T07:41:35;448.52;;;420.60;;
13999;SDS011;7075;53.574;10.054;2023-01-20T07:44:01;449.15;;;421.85;;
13999;SDS011;7075;53.574;10.054;2023-01-20T07:46:26;440.88;;;413.73;;
13999;SDS011;7075;53.574;10.054;2023-01-20T07:48:52;438.80;;;411.52;;
13999;SDS011;7075;53.574;10.054;2023-01-20T07:51:20;456.67;;;428.00;;
13999;SDS011;7075;53.574;10.054;2023-01-20T07:53:46;448.90;;;421.20;;
13999;SDS011;7075;53.574;10.054;2023-01-20T07:56:20;440.45;;;413.17;;
13999;SDS011;7075;53.574;10.054;2023-01-20T07:58:47;415.00;;;390.13;;
13999;SDS011;7075;53.574;10.054;2023-01-20T08:01:22;434.35;;;407.92;;
13999;SDS011;7075;53.574;10.054;2023-01-20T08:03:49;427.02;;;401.38;;
13999;SDS011;7075;53.574;10.054;2023-01-20T08:06:17;421.70;;;395.88;;
13999;SDS011;7075;53.574;10.054;2023-01-20T08:08:47;434.90;;;408.35;;
13999;SDS011;7075;53.574;10.054;2023-01-20T08:11:14;448.15;;;420.40;;
13999;SDS011;7075;53.574;10.054;2023-01-20T08:13:41;429.67;;;403.27;;
13999;SDS011;7075;53.574;10.054;2023-01-20T08:16:08;434.40;;;406.75;;
13999;SDS011;7075;53.574;10.054;2023-01-20T08:18:36;420.00;;;393.95;;
13999;SDS011;7075;53.574;10.054;2023-01-20T08:21:03;432.15;;;405.48;;
13999;SDS011;7075;53.574;10.054;2023-01-20T08:23:34;438.73;;;411.70;;
13999;SDS011;7075;53.574;10.054;2023-01-20T08:26:00;434.67;;;407.50;;
13999;SDS011;7075;53.574;10.054;2023-01-20T08:28:28;409.55;;;385.08;;
13999;SDS011;7075;53.574;10.054;2023-01-20T08:30:55;430.52;;;404.55;;
13999;SDS011;7075;53.574;10.054;2023-01-20T08:33:28;408.27;;;384.08;;
13999;SDS011;7075;53.574;10.054;2023-01-20T08:35:53;392.83;;;369.53;;
13999;SDS011;7075;53.574;10.054;2023-01-20T08:38:20;393.33;;;369.73;;
13999;SDS011;7075;53.574;10.054;2023-01-20T08:40:46;392.65;;;369.70;;
13999;SDS011;7075;53.574;10.054;2023-01-20T08:43:12;382.08;;;359.38;;
13999;SDS011;7075;53.574;10.054;2023-01-20T08:45:40;358.13;;;336.80;;
13999;SDS011;7075;53.574;10.054;2023-01-20T08:48:07;368.50;;;346.45;;
13999;SDS011;7075;53.574;10.054;2023-01-20T08:50:38;369.50;;;347.10;;
13999;SDS011;7075;53.574;10.054;2023-01-20T08:53:03;354.00;;;333.27;;
13999;SDS011;7075;53.574;10.054;2023-01-20T08:55:29;370.30;;;347.77;;
13999;SDS011;7075;53.574;10.054;2023-01-20T08:57:55;360.27;;;338.67;;
13999;SDS011;7075;53.574;10.054;2023-01-20T09:00:21;337.87;;;317.90;;
13999;SDS011;7075;53.574;10.054;2023-01-20T09:02:47;353.27;;;332.27;;
13999;SDS011;7075;53.574;10.054;2023-01-20T09:05:12;322.70;;;303.63;;
13999;SDS011;7075;53.574;10.054;2023-01-20T09:07:38;317.17;;;298.30;;
13999;SDS011;7075;53.574;10.054;2023-01-20T09:10:04;329.80;;;310.47;;
13999;SDS011;7075;53.574;10.054;2023-01-20T09:12:31;323.33;;;304.25;;
13999;SDS011;7075;53.574;10.054;2023-01-20T09:14:57;325.27;;;305.73;;
13999;SDS011;7075;53.574;10.054;2023-01-20T09:17:23;325.60;;;306.33;;
13999;SDS011;7075;53.574;10.054;2023-01-20T09:19:48;344.35;;;324.27;;
13999;SDS011;7075;53.574;10.054;2023-01-20T09:22:14;332.08;;;312.58;;
13999;SDS011;7075;53.574;10.054;2023-01-20T09:24:40;334.97;;;315.43;;
13999;SDS011;7075;53.574;10.054;2023-01-20T09:27:05;299.30;;;281.60;;
13999;SDS011;7075;53.574;10.054;2023-01-20T09:29:31;321.67;;;302.90;;
13999;SDS011;7075;53.574;10.054;2023-01-20T09:31:57;310.27;;;292.45;;
13999;SDS011;7075;53.574;10.054;2023-01-20T09:34:23;306.30;;;288.00;;
13999;SDS011;7075;53.574;10.054;2023-01-20T09:36:51;316.55;;;297.95;;
13999;SDS011;7075;53.574;10.054;2023-01-20T09:39:18;309.90;;;291.88;;
13999;SDS011;7075;53.574;10.054;2023-01-20T09:42:09;317.60;;;299.08;;
13999;SDS011;7075;53.574;10.054;2023-01-20T09:45:16;313.08;;;294.77;;
13999;SDS011;7075;53.574;10.054;2023-01-20T09:47:50;321.67;;;303.23;;
13999;SDS011;7075;53.574;10.054;2023-01-20T09:56:11;308.38;;;290.58;;
13999;SDS011;7075;53.574;10.054;2023-01-20T10:04:11;305.27;;;288.13;;
13999;SDS011;7075;53.574;10.054;2023-01-20T10:06:39;307.88;;;290.10;;
13999;SDS011;7075;53.574;10.054;2023-01-20T10:09:20;312.55;;;294.25;;
13999;SDS011;7075;53.574;10.054;2023-01-20T10:12:07;307.08;;;289.08;;
13999;SDS011;7075;53.574;10.054;2023-01-20T10:14:39;335.10;;;315.15;;
13999;SDS011;7075;53.574;10.054;2023-01-20T10:17:08;329.02;;;309.50;;
13999;SDS011;7075;53.574;10.054;2023-01-20T10:22:54;286.00;;;269.98;;
13999;SDS011;7075;53.574;10.054;2023-01-20T10:25:42;284.20;;;267.80;;
13999;SDS011;7075;53.574;10.054;2023-01-20T10:28:37;293.23;;;276.83;;
13999;SDS011;7075;53.574;10.054;2023-01-20T10:31:04;307.80;;;290.53;;
13999;SDS011;7075;53.574;10.054;2023-01-20T10:33:34;290.93;;;274.93;;
13999;SDS011;7075;53.574;10.054;2023-01-20T10:36:07;308.80;;;292.17;;
13999;SDS011;7075;53.574;10.054;2023-01-20T10:41:44;276.27;;;260.98;;
13999;SDS011;7075;53.574;10.054;2023-01-20T10:44:14;280.27;;;265.20;;
13999;SDS011;7075;53.574;10.054;2023-01-20T10:46:56;273.25;;;258.23;;
13999;SDS011;7075;53.574;10.054;2023-01-20T10:49:54;260.50;;;246.40;;
13999;SDS011;7075;53.574;10.054;2023-01-20T10:57:52;268.77;;;254.18;;
13999;SDS011;7075;53.574;10.054;2023-01-20T11:00:26;285.85;;;270.92;;
13999;SDS011;7075;53.574;10.054;2023-01-20T11:02:55;280.90;;;265.73;;
13999;SDS011;7075;53.574;10.054;2023-01-20T11:05:24;283.02;;;267.95;;
13999;SDS011;7075;53.574;10.054;2023-01-20T11:07:54;268.80;;;254.55;;
13999;SDS011;7075;53.574;10.054;2023-01-20T11:10:26;277.80;;;263.42;;
13999;SDS011;7075;53.574;10.054;2023-01-20T11:12:54;272.30;;;258.20;;
13999;SDS011;7075;53.574;10.054;2023-01-20T11:18:21;259.50;;;245.30;;
13999;SDS011;7075;53.574;10.054;2023-01-20T11:20:53;293.00;;;277.10;;
13999;SDS011;7075;53.574;10.054;2023-01-20T11:25:59;292.23;;;276.50;;
13999;SDS011;7075;53.574;10.054;2023-01-20T11:28:47;252.48;;;239.02;;
13999;SDS011;7075;53.574;10.054;2023-01-20T11:34:17;274.95;;;260.63;;
13999;SDS011;7075;53.574;10.054;2023-01-20T11:39:32;281.38;;;266.75;;
13999;SDS011;7075;53.574;10.054;2023-01-20T11:45:12;298.67;;;283.15;;
13999;SDS011;7075;53.574;10.054;2023-01-20T11:48:03;285.15;;;270.25;;
13999;SDS011;7075;53.574;10.054;2023-01-20T11:50:30;298.25;;;282.88;;
13999;SDS011;7075;53.574;10.054;2023-01-20T11:53:17;296.75;;;281.35;;
13999;SDS011;7075;53.574;10.054;2023-01-20T11:56:04;301.05;;;285.42;;
13999;SDS011;7075;53.574;10.054;2023-01-20T11:59:00;287.73;;;272.42;;
13999;SDS011;7075;53.574;10.054;2023-01-20T12:01:28;289.70;;;274.67;;
13999;SDS011;7075;53.574;10.054;2023-01-20T12:04:26;309.00;;;292.90;;
13999;SDS011;7075;53.574;10.054;2023-01-20T12:07:18;320.35;;;303.90;;
13999;SDS011;7075;53.574;10.054;2023-01-20T12:09:50;286.38;;;271.70;;
13999;SDS011;7075;53.574;10.054;2023-01-20T12:12:29;299.13;;;284.02;;
13999;SDS011;7075;53.574;10.054;2023-01-20T12:15:09;303.53;;;288.17;;
13999;SDS011;7075;53.574;10.054;2023-01-20T12:25:36;319.00;;;302.73;;
13999;SDS011;7075;53.574;10.054;2023-01-20T12:33:31;364.33;;;345.85;;
13999;SDS011;7075;53.574;10.054;2023-01-20T12:47:42;297.60;;;282.53;;
13999;SDS011;7075;53.574;10.054;2023-01-20T12:50:35;295.92;;;281.02;;
13999;SDS011;7075;53.574;10.054;2023-01-20T13:07:34;315.73;;;299.33;;
13999;SDS011;7075;53.574;10.054;2023-01-20T13:13:34;415.77;;;393.42;;
13999;SDS011;7075;53.574;10.054;2023-01-20T13:21:52;321.05;;;303.92;;
13999;SDS011;7075;53.574;10.054;2023-01-20T13:24:19;399.95;;;378.55;;
13999;SDS011;7075;53.574;10.054;2023-01-20T13:26:53;399.60;;;378.00;;
13999;SDS011;7075;53.574;10.054;2023-01-20T13:29:44;212.13;;;201.02;;
13999;SDS011;7075;53.574;10.054;2023-01-20T13:32:25;222.52;;;211.00;;
13999;SDS011;7075;53.574;10.054;2023-01-20T13:34:51;224.95;;;213.43;;
13999;SDS011;7075;53.574;10.054;2023-01-20T13:37:21;244.55;;;231.48;;
13999;SDS011;7075;53.574;10.054;2023-01-20T13:39:48;189.02;;;178.98;;
13999;SDS011;7075;53.574;10.054;2023-01-20T13:47:58;318.90;;;302.30;;
13999;SDS011;7075;53.574;10.054;2023-01-20T13:50:40;347.75;;;329.67;;
13999;SDS011;7075;53.574;10.054;2023-01-20T14:00:43;395.97;;;374.67;;
13999;SDS011;7075;53.574;10.054;2023-01-20T14:05:47;387.77;;;367.15;;
13999;SDS011;7075;53.574;10.054;2023-01-20T14:08:19;368.00;;;348.20;;
13999;SDS011;7075;53.574;10.054;2023-01-20T14:10:45;374.58;;;354.85;;
13999;SDS011;7075;53.574;10.054;2023-01-20T14:13:18;352.63;;;333.98;;
13999;SDS011;7075;53.574;10.054;2023-01-20T14:15:47;364.83;;;344.90;;
13999;SDS011;7075;53.574;10.054;2023-01-20T14:18:15;325.15;;;307.63;;
13999;SDS011;7075;53.574;10.054;2023-01-20T14:20:54;340.80;;;322.55;;
13999;SDS011;7075;53.574;10.054;2023-01-20T14:23:29;323.27;;;306.03;;
13999;SDS011;7075;53.574;10.054;2023-01-20T14:26:38;327.00;;;309.63;;
13999;SDS011;7075;53.574;10.054;2023-01-20T14:28:57;319.30;;;302.30;;
13999;SDS011;7075;53.574;10.054;2023-01-20T14:31:33;300.45;;;284.55;;
13999;SDS011;7075;53.574;10.054;2023-01-20T14:36:54;389.35;;;368.73;;
13999;SDS011;7075;53.574;10.054;2023-01-20T14:39:22;373.13;;;353.30;;
13999;SDS011;7075;53.574;10.054;2023-01-20T14:41:50;338.27;;;320.17;;
13999;SDS011;7075;53.574;10.054;2023-01-20T14:44:21;349.50;;;330.87;;
13999;SDS011;7075;53.574;10.054;2023-01-20T14:46:54;386.65;;;366.00;;
13999;SDS011;7075;53.574;10.054;2023-01-20T14:49:21;404.70;;;382.88;;
13999;SDS011;7075;53.574;10.054;2023-01-20T14:51:54;383.65;;;362.90;;
13999;SDS011;7075;53.574;10.054;2023-01-20T14:54:33;388.40;;;367.65;;
13999;SDS011;7075;53.574;10.054;2023-01-20T14:59:42;381.85;;;360.75;;
13999;SDS011;7075;53.574;10.054;2023-01-20T15:02:13;328.05;;;310.17;;
13999;SDS011;7075;53.574;10.054;2023-01-20T15:04:51;225.07;;;212.90;;
13999;SDS011;7075;53.574;10.054;2023-01-20T15:07:18;212.03;;;200.67;;
13999;SDS011;7075;53.574;10.054;2023-01-20T15:09:49;209.50;;;198.48;;
13999;SDS011;7075;53.574;10.054;2023-01-20T15:12:30;197.23;;;186.67;;
13999;SDS011;7075;53.574;10.054;2023-01-20T15:15:10;211.55;;;200.43;;
13999;SDS011;7075;53.574;10.054;2023-01-20T15:17:40;223.57;;;211.73;;
13999;SDS011;7075;53.574;10.054;2023-01-20T15:20:25;230.55;;;218.23;;
13999;SDS011;7075;53.574;10.054;2023-01-20T15:22:59;249.30;;;236.48;;
13999;SDS011;7075;53.574;10.054;2023-01-20T15:25:26;250.32;;;237.10;;
13999;SDS011;7075;53.574;10.054;2023-01-20T15:27:56;251.88;;;238.60;;
13999;SDS011;7075;53.574;10.054;2023-01-20T15:30:22;266.38;;;252.60;;
13999;SDS011;7075;53.574;10.054;2023-01-20T15:32:51;263.60;;;249.90;;
13999;SDS011;7075;53.574;10.054;2023-01-20T15:35:19;275.25;;;261.23;;
13999;SDS011;7075;53.574;10.054;2023-01-20T15:37:50;272.42;;;258.38;;
13999;SDS011;7075;53.574;10.054;2023-01-20T15:40:18;271.88;;;257.63;;
13999;SDS011;7075;53.574;10.054;2023-01-20T15:42:46;267.00;;;252.95;;
13999;SDS011;7075;53.574;10.054;2023-01-20T15:45:13;287.33;;;272.25;;
13999;SDS011;7075;53.574;10.054;2023-01-20T15:47:39;297.57;;;282.43;;
13999;SDS011;7075;53.574;10.054;2023-01-20T15:50:21;301.35;;;285.70;;
13999;SDS011;7075;53.574;10.054;2023-01-20T15:52:48;290.73;;;275.63;;
13999;SDS011;7075;53.574;10.054;2023-01-20T15:55:15;287.90;;;272.90;;
13999;SDS011;7075;53.574;10.054;2023-01-20T15:57:42;268.42;;;254.27;;
13999;SDS011;7075;53.574;10.054;2023-01-20T16:00:19;222.52;;;210.88;;
13999;SDS011;7075;53.574;10.054;2023-01-20T16:02:46;223.95;;;212.07;;
13999;SDS011;7075;53.574;10.054;2023-01-20T16:05:12;224.60;;;212.68;;
13999;SDS011;7075;53.574;10.054;2023-01-20T16:07:37;223.40;;;211.60;;
13999;SDS011;7075;53.574;10.054;2023-01-20T16:10:04;217.20;;;205.50;;
13999;SDS011;7075;53.574;10.054;2023-01-20T16:12:30;202.43;;;191.52;;
13999;SDS011;7075;53.574;10.054;2023-01-20T16:14:56;199.37;;;188.63;;
13999;SDS011;7075;53.574;10.054;2023-01-20T16:17:22;182.88;;;172.85;;
13999;SDS011;7075;53.574;10.054;2023-01-20T16:19:49;179.45;;;169.90;;
13999;SDS011;7075;53.574;10.054;2023-01-20T16:22:14;184.30;;;174.48;;
13999;SDS011;7075;53.574;10.054;2023-01-20T16:24:43;183.35;;;173.20;;
13999;SDS011;7075;53.574;10.054;2023-01-20T16:27:12;190.13;;;179.90;;